createdAt,value
2023-02-19T00:00:03.531Z,949.63
2023-02-19T00:00:14.623Z,949.62
2023-02-19T00:00:26.605Z,949.62
2023-02-19T00:00:38.578Z,949.63
2023-02-19T00:00:49.565Z,949.63
2023-02-19T00:01:00.579Z,949.63
2023-02-19T00:01:11.867Z,949.63
2023-02-19T00:01:22.556Z,949.63
2023-02-19T00:01:33.554Z,949.60
2023-02-19T00:01:44.543Z,949.59
2023-02-19T00:01:55.548Z,949.59
2023-02-19T00:02:06.541Z,949.60
2023-02-19T00:02:17.551Z,949.60
2023-02-19T00:02:28.542Z,949.59
2023-02-19T00:02:39.575Z,949.58
2023-02-19T00:02:50.559Z,949.59
2023-02-19T00:03:01.563Z,949.58
2023-02-19T00:03:12.610Z,949.56
2023-02-19T00:03:24.595Z,949.55
2023-02-19T00:03:36.671Z,949.54
2023-02-19T00:03:47.635Z,949.54
2023-02-19T00:03:59.600Z,949.53
2023-02-19T00:04:11.565Z,949.51
2023-02-19T00:04:22.588Z,949.51
2023-02-19T00:04:33.620Z,949.51
2023-02-19T00:04:45.604Z,949.49
2023-02-19T00:04:57.595Z,949.50
2023-02-19T00:05:09.640Z,949.52
2023-02-19T00:05:20.546Z,949.50
2023-02-19T00:05:31.552Z,949.49
2023-02-19T00:05:42.583Z,949.48
2023-02-19T00:05:53.582Z,949.47
2023-02-19T00:06:04.578Z,949.47
2023-02-19T00:06:15.566Z,949.47
2023-02-19T00:06:26.570Z,949.47
2023-02-19T00:06:37.562Z,949.48
2023-02-19T00:06:48.578Z,949.46
2023-02-19T00:06:59.587Z,949.45
2023-02-19T00:07:10.569Z,949.46
2023-02-19T00:07:21.560Z,949.47
2023-02-19T00:07:32.547Z,949.46
2023-02-19T00:07:43.589Z,949.46
2023-02-19T00:07:55.613Z,949.45
2023-02-19T00:08:06.589Z,949.45
2023-02-19T00:08:18.572Z,949.45
2023-02-19T00:08:29.566Z,949.46
2023-02-19T00:08:40.569Z,949.44
2023-02-19T00:08:51.548Z,949.41
2023-02-19T00:09:02.539Z,949.43
2023-02-19T00:09:13.649Z,949.42
2023-02-19T00:09:25.605Z,949.44
2023-02-19T00:09:37.606Z,949.45
2023-02-19T00:09:49.561Z,949.44
2023-02-19T00:10:01.602Z,949.45
2023-02-19T00:10:13.566Z,949.43
2023-02-19T00:10:24.594Z,949.43
2023-02-19T00:10:36.553Z,949.42
2023-02-19T00:10:47.554Z,949.39
2023-02-19T00:10:58.544Z,949.39
2023-02-19T00:11:09.863Z,949.39
2023-02-19T00:11:20.560Z,949.39
2023-02-19T00:11:31.565Z,949.39
2023-02-19T00:11:42.574Z,949.39
2023-02-19T00:11:53.584Z,949.39
2023-02-19T00:12:04.591Z,949.38
2023-02-19T00:12:15.583Z,949.37
2023-02-19T00:12:27.581Z,949.37
2023-02-19T00:12:39.575Z,949.36
2023-02-19T00:12:50.567Z,949.34
2023-02-19T00:13:01.576Z,949.33
2023-02-19T00:13:12.553Z,949.34
2023-02-19T00:13:23.540Z,949.35
2023-02-19T00:13:34.530Z,949.33
2023-02-19T00:13:45.615Z,949.33
2023-02-19T00:13:57.580Z,949.32
2023-02-19T00:14:08.572Z,949.31
2023-02-19T00:14:19.564Z,949.30
2023-02-19T00:14:30.563Z,949.31
2023-02-19T00:14:41.559Z,949.31
2023-02-19T00:14:52.538Z,949.30
2023-02-19T00:15:03.622Z,949.29
2023-02-19T00:15:15.579Z,949.29
2023-02-19T00:15:26.608Z,949.29
2023-02-19T00:15:37.616Z,949.30
2023-02-19T00:15:49.602Z,949.30
2023-02-19T00:16:00.603Z,949.30
2023-02-19T00:16:11.619Z,949.30
2023-02-19T00:16:23.599Z,949.30
2023-02-19T00:16:35.601Z,949.30
2023-02-19T00:16:47.574Z,949.30
2023-02-19T00:16:59.565Z,949.31
2023-02-19T00:17:10.565Z,949.31
2023-02-19T00:17:21.570Z,949.32
2023-02-19T00:17:32.577Z,949.33
2023-02-19T00:17:43.566Z,949.32
2023-02-19T00:17:54.546Z,949.31
2023-02-19T00:18:05.564Z,949.29
2023-02-19T00:18:16.560Z,949.26
2023-02-19T00:18:27.556Z,949.26
2023-02-19T00:18:38.554Z,949.23
2023-02-19T00:18:49.558Z,949.24
2023-02-19T00:19:00.552Z,949.24
2023-02-19T00:19:11.573Z,949.24
2023-02-19T00:19:22.577Z,949.23
2023-02-19T00:19:33.549Z,949.23
2023-02-19T00:19:44.572Z,949.22
2023-02-19T00:19:55.555Z,949.22
2023-02-19T00:20:06.559Z,949.22
2023-02-19T00:20:17.562Z,949.20
2023-02-19T00:20:28.561Z,949.19
2023-02-19T00:20:39.577Z,949.18
2023-02-19T00:20:51.577Z,949.18
2023-02-19T00:21:03.576Z,949.16
2023-02-19T00:21:15.560Z,949.14
2023-02-19T00:21:26.542Z,949.12
2023-02-19T00:21:37.627Z,949.09
2023-02-19T00:21:49.582Z,949.07
2023-02-19T00:22:00.581Z,949.06
2023-02-19T00:22:12.574Z,949.05
2023-02-19T00:22:23.564Z,949.04
2023-02-19T00:22:34.561Z,949.03
2023-02-19T00:22:45.538Z,949.02
2023-02-19T00:22:56.545Z,949.02
2023-02-19T00:23:07.555Z,949.03
2023-02-19T00:23:18.556Z,949.04
2023-02-19T00:23:29.573Z,949.04
2023-02-19T00:23:40.592Z,949.04
2023-02-19T00:23:51.575Z,949.04
2023-02-19T00:24:02.565Z,949.04
2023-02-19T00:24:14.593Z,949.04
2023-02-19T00:24:25.580Z,949.02
2023-02-19T00:24:36.554Z,949.03
2023-02-19T00:24:49.343Z,949.03
2023-02-19T00:25:00.569Z,949.04
2023-02-19T00:25:11.560Z,949.04
2023-02-19T00:25:22.541Z,949.04
2023-02-19T00:25:33.559Z,949.04
2023-02-19T00:25:44.573Z,949.04
2023-02-19T00:25:55.556Z,949.05
2023-02-19T00:26:17.522Z,949.06
2023-02-19T00:26:19.038Z,949.07
2023-02-19T00:26:28.542Z,949.06
2023-02-19T00:26:39.547Z,949.06
2023-02-19T00:26:50.603Z,949.05
2023-02-19T00:27:02.579Z,949.06
2023-02-19T00:27:13.582Z,949.06
2023-02-19T00:27:24.593Z,949.06
2023-02-19T00:27:35.587Z,949.06
2023-02-19T00:27:46.590Z,949.06
2023-02-19T00:27:57.602Z,949.07
2023-02-19T00:28:09.605Z,949.07
2023-02-19T00:28:21.568Z,949.07
2023-02-19T00:28:33.569Z,949.05
2023-02-19T00:28:44.573Z,949.05
2023-02-19T00:28:55.595Z,949.04
2023-02-19T00:29:07.614Z,949.04
2023-02-19T00:29:19.602Z,949.03
2023-02-19T00:29:31.578Z,949.03
2023-02-19T00:29:43.562Z,949.04
2023-02-19T00:29:54.559Z,949.04
2023-02-19T00:30:05.566Z,949.04
2023-02-19T00:30:16.651Z,949.05
2023-02-19T00:30:28.598Z,949.06
2023-02-19T00:30:39.581Z,949.05
2023-02-19T00:30:50.681Z,949.04
2023-02-19T00:31:01.622Z,949.04
2023-02-19T00:31:14.097Z,949.04
2023-02-19T00:31:25.720Z,949.04
2023-02-19T00:31:36.736Z,949.04
2023-02-19T00:31:48.695Z,949.05
2023-02-19T00:32:00.807Z,949.05
2023-02-19T00:32:12.678Z,949.05
2023-02-19T00:32:24.584Z,949.04
2023-02-19T00:32:35.582Z,949.04
2023-02-19T00:32:46.589Z,949.04
2023-02-19T00:32:57.571Z,949.03
2023-02-19T00:33:08.571Z,949.03
2023-02-19T00:33:19.578Z,949.03
2023-02-19T00:33:30.576Z,949.03
2023-02-19T00:33:41.560Z,949.03
2023-02-19T00:33:52.565Z,949.03
2023-02-19T00:34:03.593Z,949.03
2023-02-19T00:34:14.595Z,949.03
2023-02-19T00:34:25.587Z,949.03
2023-02-19T00:34:37.581Z,949.03
2023-02-19T00:34:48.578Z,949.03
2023-02-19T00:34:59.577Z,949.03
2023-02-19T00:35:10.590Z,949.03
2023-02-19T00:35:21.578Z,949.02
2023-02-19T00:35:32.578Z,949.02
2023-02-19T00:35:43.576Z,949.01
2023-02-19T00:35:54.584Z,949.01
2023-02-19T00:36:05.586Z,949.02
2023-02-19T00:36:17.566Z,949.02
2023-02-19T00:36:28.556Z,949.03
2023-02-19T00:36:39.582Z,949.04
2023-02-19T00:36:50.570Z,949.04
2023-02-19T00:37:01.557Z,949.04
2023-02-19T00:37:12.560Z,949.04
2023-02-19T00:37:23.556Z,949.04
2023-02-19T00:37:34.579Z,949.04
2023-02-19T00:37:45.576Z,949.04
2023-02-19T00:37:56.577Z,949.04
2023-02-19T00:38:07.583Z,949.04
2023-02-19T00:38:18.582Z,949.04
2023-02-19T00:38:30.565Z,949.03
2023-02-19T00:38:41.551Z,949.01
2023-02-19T00:38:52.548Z,949.01
2023-02-19T00:39:03.558Z,949.01
2023-02-19T00:39:14.551Z,949.01
2023-02-19T00:39:25.550Z,949.02
2023-02-19T00:39:36.600Z,949.02
2023-02-19T00:39:47.583Z,949.02
2023-02-19T00:39:58.566Z,949.02
2023-02-19T00:40:10.567Z,949.01
2023-02-19T00:40:22.563Z,949.01
2023-02-19T00:40:33.575Z,949.01
2023-02-19T00:40:44.578Z,949.01
2023-02-19T00:40:55.570Z,949.02
2023-02-19T00:41:06.564Z,949.02
2023-02-19T00:41:17.556Z,949.02
2023-02-19T00:41:28.555Z,949.01
2023-02-19T00:41:39.566Z,949.00
2023-02-19T00:41:50.555Z,949.00
2023-02-19T00:42:02.569Z,948.99
2023-02-19T00:42:13.586Z,948.99
2023-02-19T00:42:25.570Z,949.00
2023-02-19T00:42:36.566Z,949.00
2023-02-19T00:42:47.555Z,949.00
2023-02-19T00:42:58.557Z,949.00
2023-02-19T00:43:09.540Z,948.99
2023-02-19T00:43:20.537Z,948.98
2023-02-19T00:43:31.570Z,948.97
2023-02-19T00:43:42.575Z,948.97
2023-02-19T00:43:53.558Z,948.97
2023-02-19T00:44:04.541Z,948.96
2023-02-19T00:44:15.560Z,948.96
2023-02-19T00:44:26.545Z,948.95
2023-02-19T00:44:37.541Z,948.94
2023-02-19T00:44:48.626Z,948.93
2023-02-19T00:45:00.600Z,948.93
2023-02-19T00:45:11.594Z,948.93
2023-02-19T00:45:23.587Z,948.93
2023-02-19T00:45:34.582Z,948.93
2023-02-19T00:45:45.556Z,948.93
2023-02-19T00:45:56.577Z,948.92
2023-02-19T00:46:07.593Z,948.92
2023-02-19T00:46:18.657Z,948.92
2023-02-19T00:46:29.613Z,948.91
2023-02-19T00:46:41.665Z,948.91
2023-02-19T00:46:52.584Z,948.91
2023-02-19T00:47:04.584Z,948.90
2023-02-19T00:47:15.585Z,948.90
2023-02-19T00:47:26.589Z,948.90
2023-02-19T00:47:38.565Z,948.89
2023-02-19T00:47:49.543Z,948.88
2023-02-19T00:48:00.559Z,948.88
2023-02-19T00:48:11.569Z,948.87
2023-02-19T00:48:22.574Z,948.86
2023-02-19T00:48:33.571Z,948.85
2023-02-19T00:48:44.554Z,948.83
2023-02-19T00:48:55.558Z,948.81
2023-02-19T00:49:06.557Z,948.80
2023-02-19T00:49:17.559Z,948.80
2023-02-19T00:49:28.565Z,948.79
2023-02-19T00:49:39.546Z,948.78
2023-02-19T00:49:50.623Z,948.78
2023-02-19T00:50:02.586Z,948.78
2023-02-19T00:50:13.564Z,948.79
2023-02-19T00:50:24.549Z,948.78
2023-02-19T00:50:35.538Z,948.79
2023-02-19T00:50:46.612Z,948.79
2023-02-19T00:50:58.570Z,948.78
2023-02-19T00:51:09.873Z,948.77
2023-02-19T00:51:20.589Z,948.77
2023-02-19T00:51:32.577Z,948.76
2023-02-19T00:51:43.562Z,948.76
2023-02-19T00:51:54.565Z,948.76
2023-02-19T00:52:05.577Z,948.76
2023-02-19T00:52:16.561Z,948.75
2023-02-19T00:52:27.544Z,948.75
2023-02-19T00:52:38.555Z,948.75
2023-02-19T00:52:49.532Z,948.75
2023-02-19T00:53:00.615Z,948.75
2023-02-19T00:53:12.615Z,948.75
2023-02-19T00:53:24.571Z,948.76
2023-02-19T00:53:36.578Z,948.76
2023-02-19T00:53:47.579Z,948.76
2023-02-19T00:53:58.581Z,948.76
2023-02-19T00:54:10.575Z,948.76
2023-02-19T00:54:21.582Z,948.77
2023-02-19T00:54:33.559Z,948.76
2023-02-19T00:54:44.549Z,948.77
2023-02-19T00:54:55.581Z,948.77
2023-02-19T00:55:06.557Z,948.76
2023-02-19T00:55:17.551Z,948.76
2023-02-19T00:55:28.603Z,948.76
2023-02-19T00:55:39.594Z,948.76
2023-02-19T00:55:50.597Z,948.76
2023-02-19T00:56:02.575Z,948.77
2023-02-19T00:56:13.578Z,948.77
2023-02-19T00:56:24.572Z,948.78
2023-02-19T00:56:35.576Z,948.77
2023-02-19T00:56:46.572Z,948.77
2023-02-19T00:56:57.582Z,948.77
2023-02-19T00:57:08.577Z,948.77
2023-02-19T00:57:19.562Z,948.76
2023-02-19T00:57:30.563Z,948.76
2023-02-19T00:57:41.546Z,948.76
2023-02-19T00:57:52.569Z,948.76
2023-02-19T00:58:03.561Z,948.74
2023-02-19T00:58:14.579Z,948.73
2023-02-19T00:58:25.572Z,948.72
2023-02-19T00:58:36.560Z,948.72
2023-02-19T00:58:47.556Z,948.72
2023-02-19T00:58:58.561Z,948.72
2023-02-19T00:59:09.553Z,948.72
2023-02-19T00:59:20.554Z,948.71
2023-02-19T00:59:31.577Z,948.69
2023-02-19T00:59:43.570Z,948.68
2023-02-19T00:59:55.577Z,948.68
2023-02-19T01:00:06.579Z,948.69
2023-02-19T01:00:17.559Z,948.69
2023-02-19T01:00:28.552Z,948.68
2023-02-19T01:00:39.553Z,948.67
2023-02-19T01:00:50.545Z,948.66
2023-02-19T01:01:01.551Z,948.65
2023-02-19T01:01:12.618Z,948.65
2023-02-19T01:01:23.675Z,948.65
2023-02-19T01:01:35.578Z,948.65
2023-02-19T01:01:46.629Z,948.65
2023-02-19T01:01:57.649Z,948.65
2023-02-19T01:02:08.566Z,948.64
2023-02-19T01:02:19.555Z,948.64
2023-02-19T01:02:30.566Z,948.64
2023-02-19T01:02:41.558Z,948.63
2023-02-19T01:02:52.542Z,948.61
2023-02-19T01:03:03.635Z,948.61
2023-02-19T01:03:15.632Z,948.59
2023-02-19T01:03:27.617Z,948.59
2023-02-19T01:03:39.583Z,948.59
2023-02-19T01:03:50.580Z,948.59
2023-02-19T01:04:01.578Z,948.60
2023-02-19T01:04:12.591Z,948.59
2023-02-19T01:04:24.578Z,948.60
2023-02-19T01:04:36.595Z,948.60
2023-02-19T01:04:48.606Z,948.59
2023-02-19T01:04:59.628Z,948.58
2023-02-19T01:05:11.589Z,948.59
2023-02-19T01:05:22.582Z,948.60
2023-02-19T01:05:33.598Z,948.60
2023-02-19T01:05:44.586Z,948.61
2023-02-19T01:05:55.584Z,948.61
2023-02-19T01:06:06.567Z,948.60
2023-02-19T01:06:17.560Z,948.59
2023-02-19T01:06:28.549Z,948.58
2023-02-19T01:06:39.559Z,948.57
2023-02-19T01:06:50.564Z,948.57
2023-02-19T01:07:01.571Z,948.56
2023-02-19T01:07:12.559Z,948.57
2023-02-19T01:07:23.536Z,948.58
2023-02-19T01:07:34.544Z,948.59
2023-02-19T01:07:45.628Z,948.58
2023-02-19T01:07:57.574Z,948.59
2023-02-19T01:08:08.554Z,948.58
2023-02-19T01:08:19.571Z,948.58
2023-02-19T01:08:30.575Z,948.57
2023-02-19T01:08:42.580Z,948.58
2023-02-19T01:08:53.583Z,948.58
2023-02-19T01:09:04.573Z,948.58
2023-02-19T01:09:15.550Z,948.58
2023-02-19T01:09:26.581Z,948.58
2023-02-19T01:09:37.572Z,948.59
2023-02-19T01:09:48.555Z,948.60
2023-02-19T01:09:59.588Z,948.60
2023-02-19T01:10:11.554Z,948.62
2023-02-19T01:10:22.557Z,948.63
2023-02-19T01:10:33.542Z,948.64
2023-02-19T01:10:44.628Z,948.62
2023-02-19T01:10:56.590Z,948.59
2023-02-19T01:11:08.828Z,948.58
2023-02-19T01:11:19.534Z,948.56
2023-02-19T01:11:30.617Z,948.57
2023-02-19T01:11:42.566Z,948.58
2023-02-19T01:11:53.558Z,948.56
2023-02-19T01:12:04.557Z,948.55
2023-02-19T01:12:15.575Z,948.55
2023-02-19T01:12:26.581Z,948.55
2023-02-19T01:12:37.560Z,948.54
2023-02-19T01:12:48.584Z,948.52
2023-02-19T01:12:59.581Z,948.51
2023-02-19T01:13:10.564Z,948.51
2023-02-19T01:13:21.558Z,948.50
2023-02-19T01:13:32.545Z,948.49
2023-02-19T01:13:43.648Z,948.50
2023-02-19T01:13:55.627Z,948.49
2023-02-19T01:14:07.578Z,948.48
2023-02-19T01:14:18.591Z,948.47
2023-02-19T01:14:29.589Z,948.46
2023-02-19T01:14:40.586Z,948.45
2023-02-19T01:14:51.567Z,948.45
2023-02-19T01:15:02.575Z,948.45
2023-02-19T01:15:13.558Z,948.45
2023-02-19T01:15:24.574Z,948.45
2023-02-19T01:15:35.567Z,948.45
2023-02-19T01:15:46.635Z,948.46
2023-02-19T01:15:57.592Z,948.45
2023-02-19T01:16:08.689Z,948.45
2023-02-19T01:16:20.703Z,948.44
2023-02-19T01:16:32.621Z,948.44
2023-02-19T01:16:44.604Z,948.44
2023-02-19T01:16:56.562Z,948.44
2023-02-19T01:17:08.566Z,948.44
2023-02-19T01:17:20.578Z,948.44
2023-02-19T01:17:31.559Z,948.45
2023-02-19T01:17:42.546Z,948.44
2023-02-19T01:17:53.631Z,948.44
2023-02-19T01:18:05.611Z,948.44
2023-02-19T01:18:17.638Z,948.43
2023-02-19T01:18:29.589Z,948.43
2023-02-19T01:18:40.597Z,948.43
2023-02-19T01:18:51.595Z,948.44
2023-02-19T01:19:03.604Z,948.46
2023-02-19T01:19:16.321Z,948.45
2023-02-19T01:19:26.588Z,948.44
2023-02-19T01:19:37.593Z,948.42
2023-02-19T01:19:49.575Z,948.41
2023-02-19T01:20:00.571Z,948.38
2023-02-19T01:20:11.576Z,948.38
2023-02-19T01:20:22.569Z,948.38
2023-02-19T01:20:33.572Z,948.38
2023-02-19T01:20:44.545Z,948.37
2023-02-19T01:20:55.540Z,948.37
2023-02-19T01:21:06.541Z,948.37
2023-02-19T01:21:17.625Z,948.36
2023-02-19T01:21:29.581Z,948.37
2023-02-19T01:21:40.566Z,948.38
2023-02-19T01:21:51.541Z,948.39
2023-02-19T01:22:02.544Z,948.38
2023-02-19T01:22:13.542Z,948.39
2023-02-19T01:22:24.538Z,948.40
2023-02-19T01:22:35.628Z,948.41
2023-02-19T01:22:47.577Z,948.40
2023-02-19T01:22:58.557Z,948.39
2023-02-19T01:23:09.575Z,948.39
2023-02-19T01:23:20.617Z,948.39
2023-02-19T01:23:32.563Z,948.39
2023-02-19T01:23:43.562Z,948.41
2023-02-19T01:23:54.557Z,948.40
2023-02-19T01:24:05.552Z,948.40
2023-02-19T01:24:16.595Z,948.39
2023-02-19T01:24:27.577Z,948.39
2023-02-19T01:24:38.568Z,948.39
2023-02-19T01:24:49.581Z,948.39
2023-02-19T01:25:00.568Z,948.40
2023-02-19T01:25:11.554Z,948.42
2023-02-19T01:25:22.562Z,948.45
2023-02-19T01:25:33.549Z,948.46
2023-02-19T01:25:44.555Z,948.47
2023-02-19T01:25:55.547Z,948.47
2023-02-19T01:26:06.533Z,948.47
2023-02-19T01:26:17.617Z,948.47
2023-02-19T01:26:29.621Z,948.49
2023-02-19T01:26:41.582Z,948.50
2023-02-19T01:26:53.560Z,948.51
2023-02-19T01:27:04.555Z,948.52
2023-02-19T01:27:15.539Z,948.52
2023-02-19T01:27:26.538Z,948.51
2023-02-19T01:27:37.543Z,948.50
2023-02-19T01:27:48.545Z,948.50
2023-02-19T01:27:59.532Z,948.51
2023-02-19T01:28:10.567Z,948.52
2023-02-19T01:28:21.587Z,948.51
2023-02-19T01:28:32.573Z,948.48
2023-02-19T01:28:44.544Z,948.45
2023-02-19T01:28:55.572Z,948.45
2023-02-19T01:29:06.551Z,948.47
2023-02-19T01:29:17.589Z,948.46
2023-02-19T01:29:28.595Z,948.44
2023-02-19T01:29:39.589Z,948.42
2023-02-19T01:29:50.574Z,948.43
2023-02-19T01:30:01.647Z,948.42
2023-02-19T01:30:12.603Z,948.40
2023-02-19T01:30:24.765Z,948.37
2023-02-19T01:30:35.620Z,948.37
2023-02-19T01:30:47.571Z,948.40
2023-02-19T01:30:59.578Z,948.40
2023-02-19T01:31:10.976Z,948.43
2023-02-19T01:31:21.729Z,948.45
2023-02-19T01:31:33.665Z,948.44
2023-02-19T01:31:45.681Z,948.42
2023-02-19T01:31:56.667Z,948.42
2023-02-19T01:32:07.654Z,948.42
2023-02-19T01:32:18.581Z,948.41
2023-02-19T01:32:29.576Z,948.40
2023-02-19T01:32:40.580Z,948.36
2023-02-19T01:32:51.588Z,948.35
2023-02-19T01:33:02.561Z,948.35
2023-02-19T01:33:13.561Z,948.36
2023-02-19T01:33:24.568Z,948.35
2023-02-19T01:33:36.560Z,948.34
2023-02-19T01:33:47.567Z,948.32
2023-02-19T01:33:58.559Z,948.32
2023-02-19T01:34:10.563Z,948.32
2023-02-19T01:34:21.549Z,948.33
2023-02-19T01:34:32.526Z,948.33
2023-02-19T01:34:43.624Z,948.33
2023-02-19T01:34:55.553Z,948.34
2023-02-19T01:35:06.545Z,948.34
2023-02-19T01:35:17.578Z,948.34
2023-02-19T01:35:28.574Z,948.34
2023-02-19T01:35:39.587Z,948.34
2023-02-19T01:35:50.569Z,948.33
2023-02-19T01:36:01.555Z,948.30
2023-02-19T01:36:12.544Z,948.28
2023-02-19T01:36:23.531Z,948.28
2023-02-19T01:36:34.630Z,948.30
2023-02-19T01:36:46.587Z,948.31
2023-02-19T01:36:58.586Z,948.31
2023-02-19T01:37:09.580Z,948.30
2023-02-19T01:37:21.566Z,948.31
2023-02-19T01:37:33.565Z,948.32
2023-02-19T01:37:44.545Z,948.29
2023-02-19T01:37:55.561Z,948.29
2023-02-19T01:38:06.557Z,948.29
2023-02-19T01:38:17.537Z,948.30
2023-02-19T01:38:28.629Z,948.31
2023-02-19T01:38:40.573Z,948.31
2023-02-19T01:38:51.573Z,948.28
2023-02-19T01:39:02.552Z,948.25
2023-02-19T01:39:13.536Z,948.24
2023-02-19T01:39:24.539Z,948.21
2023-02-19T01:39:35.538Z,948.20
2023-02-19T01:39:46.627Z,948.20
2023-02-19T01:39:58.585Z,948.21
2023-02-19T01:40:09.572Z,948.23
2023-02-19T01:40:20.564Z,948.24
2023-02-19T01:40:32.565Z,948.21
2023-02-19T01:40:43.599Z,948.21
2023-02-19T01:40:54.589Z,948.23
2023-02-19T01:41:05.562Z,948.25
2023-02-19T01:41:17.563Z,948.23
2023-02-19T01:41:28.544Z,948.21
2023-02-19T01:41:39.608Z,948.21
2023-02-19T01:41:50.539Z,948.25
2023-02-19T01:42:01.551Z,948.24
2023-02-19T01:42:12.554Z,948.21
2023-02-19T01:42:23.545Z,948.20
2023-02-19T01:42:34.533Z,948.23
2023-02-19T01:42:45.530Z,948.26
2023-02-19T01:42:56.730Z,948.22
2023-02-19T01:43:08.560Z,948.17
2023-02-19T01:43:19.564Z,948.15
2023-02-19T01:43:30.558Z,948.15
2023-02-19T01:43:41.540Z,948.17
2023-02-19T01:43:52.527Z,948.20
2023-02-19T01:44:03.551Z,948.21
2023-02-19T01:44:14.542Z,948.22
2023-02-19T01:44:25.565Z,948.22
2023-02-19T01:44:36.557Z,948.21
2023-02-19T01:44:47.570Z,948.21
2023-02-19T01:44:59.557Z,948.21
2023-02-19T01:45:10.570Z,948.20
2023-02-19T01:45:21.567Z,948.21
2023-02-19T01:45:33.562Z,948.23
2023-02-19T01:45:44.558Z,948.25
2023-02-19T01:45:55.558Z,948.27
2023-02-19T01:46:06.567Z,948.27
2023-02-19T01:46:17.587Z,948.27
2023-02-19T01:46:28.648Z,948.27
2023-02-19T01:46:39.611Z,948.28
2023-02-19T01:46:50.600Z,948.29
2023-02-19T01:47:01.590Z,948.28
2023-02-19T01:47:12.585Z,948.29
2023-02-19T01:47:24.564Z,948.30
2023-02-19T01:47:35.542Z,948.29
2023-02-19T01:47:46.516Z,948.29
2023-02-19T01:47:57.614Z,948.27
2023-02-19T01:48:09.562Z,948.24
2023-02-19T01:48:20.588Z,948.25
2023-02-19T01:48:32.564Z,948.26
2023-02-19T01:48:43.566Z,948.27
2023-02-19T01:48:54.554Z,948.28
2023-02-19T01:49:05.564Z,948.27
2023-02-19T01:49:16.550Z,948.27
2023-02-19T01:49:27.572Z,948.22
2023-02-19T01:49:38.575Z,948.20
2023-02-19T01:49:50.569Z,948.18
2023-02-19T01:50:01.584Z,948.17
2023-02-19T01:50:12.555Z,948.15
2023-02-19T01:50:23.547Z,948.14
2023-02-19T01:50:34.588Z,948.15
2023-02-19T01:50:45.568Z,948.18
2023-02-19T01:50:57.569Z,948.20
2023-02-19T01:51:09.033Z,948.20
2023-02-19T01:51:20.559Z,948.15
2023-02-19T01:51:31.590Z,948.15
2023-02-19T01:51:43.570Z,948.17
2023-02-19T01:51:55.555Z,948.19
2023-02-19T01:52:06.553Z,948.22
2023-02-19T01:52:17.559Z,948.20
2023-02-19T01:52:28.547Z,948.14
2023-02-19T01:52:39.553Z,948.16
2023-02-19T01:52:50.548Z,948.13
2023-02-19T01:53:01.543Z,948.09
2023-02-19T01:53:12.549Z,948.09
2023-02-19T01:53:23.538Z,948.09
2023-02-19T01:53:34.544Z,948.09
2023-02-19T01:53:45.542Z,948.08
2023-02-19T01:53:56.632Z,948.09
2023-02-19T01:54:08.601Z,948.07
2023-02-19T01:54:19.585Z,948.07
2023-02-19T01:54:31.558Z,948.06
2023-02-19T01:54:42.568Z,948.04
2023-02-19T01:54:53.563Z,948.03
2023-02-19T01:55:04.558Z,948.05
2023-02-19T01:55:15.576Z,948.06
2023-02-19T01:55:26.557Z,948.05
2023-02-19T01:55:37.593Z,948.05
2023-02-19T01:55:48.592Z,948.05
2023-02-19T01:55:59.572Z,948.02
2023-02-19T01:56:10.580Z,948.02
2023-02-19T01:56:21.568Z,948.03
2023-02-19T01:56:32.575Z,948.02
2023-02-19T01:56:43.571Z,948.00
2023-02-19T01:56:54.546Z,947.98
2023-02-19T01:57:05.563Z,947.98
2023-02-19T01:57:16.622Z,947.99
2023-02-19T01:57:28.570Z,948.00
2023-02-19T01:57:39.569Z,948.00
2023-02-19T01:57:50.565Z,948.00
2023-02-19T01:58:01.577Z,948.01
2023-02-19T01:58:12.562Z,948.01
2023-02-19T01:58:23.562Z,948.00
2023-02-19T01:58:34.586Z,948.01
2023-02-19T01:58:45.577Z,948.02
2023-02-19T01:58:56.560Z,948.01
2023-02-19T01:59:07.568Z,948.02
2023-02-19T01:59:18.556Z,948.00
2023-02-19T01:59:29.554Z,947.99
2023-02-19T01:59:40.592Z,948.01
2023-02-19T01:59:51.589Z,948.00
2023-02-19T02:00:02.593Z,947.98
2023-02-19T02:00:13.603Z,947.97
2023-02-19T02:00:24.584Z,947.95
2023-02-19T02:00:35.684Z,947.95
2023-02-19T02:00:47.654Z,947.95
2023-02-19T02:00:58.572Z,947.95
2023-02-19T02:01:09.966Z,947.95
2023-02-19T02:01:21.593Z,947.95
2023-02-19T02:01:32.573Z,947.95
2023-02-19T02:01:43.611Z,947.94
2023-02-19T02:01:55.636Z,947.94
2023-02-19T02:02:06.570Z,947.94
2023-02-19T02:02:17.638Z,947.94
2023-02-19T02:02:29.586Z,947.93
2023-02-19T02:02:40.575Z,947.92
2023-02-19T02:02:52.569Z,947.91
2023-02-19T02:03:03.564Z,947.90
2023-02-19T02:03:14.566Z,947.89
2023-02-19T02:03:26.567Z,947.88
2023-02-19T02:03:37.580Z,947.87
2023-02-19T02:03:49.557Z,947.86
2023-02-19T02:04:00.599Z,947.85
2023-02-19T02:04:11.582Z,947.85
2023-02-19T02:04:22.561Z,947.84
2023-02-19T02:04:33.567Z,947.84
2023-02-19T02:04:44.540Z,947.83
2023-02-19T02:04:55.625Z,947.82
2023-02-19T02:05:07.588Z,947.80
2023-02-19T02:05:18.575Z,947.80
2023-02-19T02:05:29.562Z,947.81
2023-02-19T02:05:40.555Z,947.82
2023-02-19T02:05:51.550Z,947.81
2023-02-19T02:06:02.593Z,947.81
2023-02-19T02:06:13.592Z,947.82
2023-02-19T02:06:25.581Z,947.82
2023-02-19T02:06:36.577Z,947.82
2023-02-19T02:06:47.572Z,947.81
2023-02-19T02:06:58.590Z,947.79
2023-02-19T02:07:09.572Z,947.78
2023-02-19T02:07:20.601Z,947.77
2023-02-19T02:07:31.587Z,947.78
2023-02-19T02:07:42.592Z,947.78
2023-02-19T02:07:53.594Z,947.78
2023-02-19T02:08:05.574Z,947.78
2023-02-19T02:08:16.569Z,947.77
2023-02-19T02:08:27.573Z,947.77
2023-02-19T02:08:38.577Z,947.77
2023-02-19T02:08:49.606Z,947.78
2023-02-19T02:09:00.585Z,947.78
2023-02-19T02:09:11.583Z,947.77
2023-02-19T02:09:22.565Z,947.77
2023-02-19T02:09:33.588Z,947.77
2023-02-19T02:09:44.560Z,947.77
2023-02-19T02:09:55.590Z,947.77
2023-02-19T02:10:06.584Z,947.78
2023-02-19T02:10:17.565Z,947.78
2023-02-19T02:10:28.548Z,947.78
2023-02-19T02:10:39.534Z,947.78
2023-02-19T02:10:50.534Z,947.77
2023-02-19T02:11:01.638Z,947.77
2023-02-19T02:11:13.592Z,947.78
2023-02-19T02:11:25.559Z,947.79
2023-02-19T02:11:36.554Z,947.80
2023-02-19T02:11:47.555Z,947.81
2023-02-19T02:11:58.553Z,947.80
2023-02-19T02:12:09.550Z,947.78
2023-02-19T02:12:20.534Z,947.78
2023-02-19T02:12:31.566Z,947.78
2023-02-19T02:12:42.564Z,947.78
2023-02-19T02:12:53.569Z,947.79
2023-02-19T02:13:04.579Z,947.79
2023-02-19T02:13:15.564Z,947.78
2023-02-19T02:13:26.561Z,947.79
2023-02-19T02:13:37.566Z,947.78
2023-02-19T02:13:49.549Z,947.79
2023-02-19T02:14:00.564Z,947.79
2023-02-19T02:14:11.559Z,947.79
2023-02-19T02:14:22.559Z,947.78
2023-02-19T02:14:33.537Z,947.77
2023-02-19T02:14:44.557Z,947.77
2023-02-19T02:14:55.535Z,947.77
2023-02-19T02:15:06.618Z,947.76
2023-02-19T02:15:18.594Z,947.76
2023-02-19T02:15:29.580Z,947.76
2023-02-19T02:15:40.575Z,947.75
2023-02-19T02:15:51.697Z,947.75
2023-02-19T02:16:02.578Z,947.75
2023-02-19T02:16:13.601Z,947.75
2023-02-19T02:16:24.640Z,947.75
2023-02-19T02:16:35.565Z,947.75
2023-02-19T02:16:46.547Z,947.77
2023-02-19T02:16:57.623Z,947.75
2023-02-19T02:17:09.593Z,947.72
2023-02-19T02:17:20.606Z,947.72
2023-02-19T02:17:31.593Z,947.75
2023-02-19T02:17:42.579Z,947.77
2023-02-19T02:17:53.577Z,947.78
2023-02-19T02:18:04.573Z,947.79
2023-02-19T02:18:16.581Z,947.78
2023-02-19T02:18:27.559Z,947.78
2023-02-19T02:18:38.526Z,947.79
2023-02-19T02:18:49.629Z,947.81
2023-02-19T02:19:01.590Z,947.82
2023-02-19T02:19:13.568Z,947.79
2023-02-19T02:19:24.542Z,947.77
2023-02-19T02:19:35.620Z,947.78
2023-02-19T02:19:47.567Z,947.77